sensor_id;sensor_type;location;lat;lon;timestamp;P1;durP1;ratioP1;P2;durP2;ratioP2
71896;SDS011;59767;51.344;12.362;2022-08-19T10:33:00;25.83;;;16.08;;
71896;SDS011;59767;51.344;12.362;2022-08-19T10:36:15;22.40;;;15.85;;
71896;SDS011;59767;51.344;12.362;2022-08-19T10:39:21;22.45;;;15.20;;
71896;SDS011;59767;51.344;12.362;2022-08-19T10:42:26;23.50;;;14.50;;
71896;SDS011;59767;51.344;12.362;2022-08-19T10:45:30;20.10;;;13.82;;
71896;SDS011;59767;51.344;12.362;2022-08-19T10:48:36;23.13;;;14.60;;
71896;SDS011;59767;51.344;12.362;2022-08-19T10:51:40;22.50;;;15.05;;
71896;SDS011;59767;51.344;12.362;2022-08-19T10:55:04;25.23;;;13.60;;
71896;SDS011;59767;51.344;12.362;2022-08-19T10:58:32;20.52;;;13.27;;
71896;SDS011;59767;51.344;12.362;2022-08-19T11:01:36;25.13;;;13.98;;
71896;SDS011;59767;51.344;12.362;2022-08-19T11:04:40;23.45;;;13.38;;
71896;SDS011;59767;51.344;12.362;2022-08-19T11:07:44;24.27;;;13.15;;
71896;SDS011;59767;51.344;12.362;2022-08-19T11:10:48;17.73;;;12.00;;
71896;SDS011;59767;51.344;12.362;2022-08-19T11:13:53;25.30;;;12.98;;
71896;SDS011;59767;51.344;12.362;2022-08-19T11:16:58;21.58;;;12.88;;
71896;SDS011;59767;51.344;12.362;2022-08-19T11:20:02;20.35;;;12.30;;
71896;SDS011;59767;51.344;12.362;2022-08-19T11:23:08;18.50;;;11.43;;
71896;SDS011;59767;51.344;12.362;2022-08-19T11:26:13;23.08;;;12.48;;
71896;SDS011;59767;51.344;12.362;2022-08-19T11:29:20;19.77;;;11.77;;
71896;SDS011;59767;51.344;12.362;2022-08-19T11:32:24;17.02;;;10.85;;
71896;SDS011;59767;51.344;12.362;2022-08-19T11:35:29;18.70;;;10.63;;
71896;SDS011;59767;51.344;12.362;2022-08-19T11:38:33;21.20;;;10.82;;
71896;SDS011;59767;51.344;12.362;2022-08-19T11:41:39;20.13;;;10.27;;
71896;SDS011;59767;51.344;12.362;2022-08-19T11:44:43;17.08;;;9.50;;
71896;SDS011;59767;51.344;12.362;2022-08-19T11:47:47;15.82;;;9.63;;
71896;SDS011;59767;51.344;12.362;2022-08-19T11:50:52;14.95;;;9.55;;
71896;SDS011;59767;51.344;12.362;2022-08-19T11:53:59;20.08;;;9.80;;
71896;SDS011;59767;51.344;12.362;2022-08-19T11:57:03;19.15;;;10.60;;
71896;SDS011;59767;51.344;12.362;2022-08-19T12:00:08;17.92;;;10.40;;
71896;SDS011;59767;51.344;12.362;2022-08-19T12:03:15;20.92;;;11.30;;
71896;SDS011;59767;51.344;12.362;2022-08-19T12:06:31;20.17;;;10.82;;
71896;SDS011;59767;51.344;12.362;2022-08-19T12:09:37;18.80;;;11.20;;
71896;SDS011;59767;51.344;12.362;2022-08-19T12:12:45;19.73;;;10.63;;
71896;SDS011;59767;51.344;12.362;2022-08-19T12:15:56;24.92;;;10.57;;
71896;SDS011;59767;51.344;12.362;2022-08-19T12:19:01;17.58;;;10.38;;
71896;SDS011;59767;51.344;12.362;2022-08-19T12:22:07;16.70;;;9.45;;
71896;SDS011;59767;51.344;12.362;2022-08-19T12:25:11;17.92;;;9.45;;
71896;SDS011;59767;51.344;12.362;2022-08-19T12:28:16;14.65;;;9.98;;
71896;SDS011;59767;51.344;12.362;2022-08-19T12:31:21;16.13;;;10.52;;
71896;SDS011;59767;51.344;12.362;2022-08-19T12:34:25;15.07;;;9.70;;
71896;SDS011;59767;51.344;12.362;2022-08-19T12:37:33;16.25;;;9.60;;
71896;SDS011;59767;51.344;12.362;2022-08-19T12:40:37;14.32;;;9.23;;
71896;SDS011;59767;51.344;12.362;2022-08-19T12:43:44;19.48;;;10.98;;
71896;SDS011;59767;51.344;12.362;2022-08-19T12:46:49;17.08;;;11.65;;
71896;SDS011;59767;51.344;12.362;2022-08-19T12:49:56;19.85;;;12.35;;
71896;SDS011;59767;51.344;12.362;2022-08-19T12:53:01;17.27;;;11.82;;
71896;SDS011;59767;51.344;12.362;2022-08-19T12:56:06;19.73;;;11.68;;
71896;SDS011;59767;51.344;12.362;2022-08-19T12:59:15;16.15;;;9.95;;
71896;SDS011;59767;51.344;12.362;2022-08-19T13:02:21;17.92;;;10.38;;
71896;SDS011;59767;51.344;12.362;2022-08-19T13:05:27;20.35;;;12.43;;
71896;SDS011;59767;51.344;12.362;2022-08-19T13:08:33;17.90;;;10.85;;
71896;SDS011;59767;51.344;12.362;2022-08-19T13:11:37;15.45;;;10.00;;
71896;SDS011;59767;51.344;12.362;2022-08-19T13:14:41;17.33;;;10.70;;
71896;SDS011;59767;51.344;12.362;2022-08-19T13:17:47;14.95;;;9.60;;
71896;SDS011;59767;51.344;12.362;2022-08-19T13:20:54;17.70;;;11.50;;
71896;SDS011;59767;51.344;12.362;2022-08-19T13:24:00;16.60;;;10.15;;
71896;SDS011;59767;51.344;12.362;2022-08-19T13:27:04;18.05;;;11.73;;
71896;SDS011;59767;51.344;12.362;2022-08-19T13:30:09;18.73;;;12.13;;
71896;SDS011;59767;51.344;12.362;2022-08-19T13:33:34;21.92;;;12.57;;
71896;SDS011;59767;51.344;12.362;2022-08-19T13:36:39;18.67;;;11.73;;
71896;SDS011;59767;51.344;12.362;2022-08-19T13:39:43;16.90;;;11.40;;
71896;SDS011;59767;51.344;12.362;2022-08-19T13:42:50;19.58;;;12.57;;
71896;SDS011;59767;51.344;12.362;2022-08-19T13:45:55;16.98;;;11.00;;
71896;SDS011;59767;51.344;12.362;2022-08-19T13:49:00;19.27;;;12.90;;
71896;SDS011;59767;51.344;12.362;2022-08-19T13:52:04;15.32;;;10.30;;
71896;SDS011;59767;51.344;12.362;2022-08-19T13:55:09;18.75;;;12.60;;
71896;SDS011;59767;51.344;12.362;2022-08-19T13:58:14;15.82;;;11.02;;
71896;SDS011;59767;51.344;12.362;2022-08-19T14:01:19;17.15;;;11.00;;
71896;SDS011;59767;51.344;12.362;2022-08-19T14:04:27;22.52;;;11.88;;
71896;SDS011;59767;51.344;12.362;2022-08-19T14:07:31;19.00;;;12.48;;
71896;SDS011;59767;51.344;12.362;2022-08-19T14:10:35;19.08;;;11.93;;
71896;SDS011;59767;51.344;12.362;2022-08-19T14:13:40;19.75;;;12.35;;
71896;SDS011;59767;51.344;12.362;2022-08-19T14:16:44;20.35;;;12.35;;
71896;SDS011;59767;51.344;12.362;2022-08-19T14:19:48;20.15;;;12.32;;
71896;SDS011;59767;51.344;12.362;2022-08-19T14:22:53;16.88;;;11.23;;
71896;SDS011;59767;51.344;12.362;2022-08-19T14:26:05;16.17;;;10.30;;
71896;SDS011;59767;51.344;12.362;2022-08-19T14:29:11;13.38;;;8.75;;
71896;SDS011;59767;51.344;12.362;2022-08-19T14:32:16;15.85;;;9.65;;
71896;SDS011;59767;51.344;12.362;2022-08-19T14:35:20;19.50;;;10.50;;
71896;SDS011;59767;51.344;12.362;2022-08-19T14:38:29;15.73;;;10.45;;
71896;SDS011;59767;51.344;12.362;2022-08-19T14:41:34;14.23;;;9.18;;
71896;SDS011;59767;51.344;12.362;2022-08-19T14:44:39;16.52;;;9.32;;
71896;SDS011;59767;51.344;12.362;2022-08-19T14:47:44;15.45;;;8.95;;
71896;SDS011;59767;51.344;12.362;2022-08-19T14:50:48;13.10;;;9.10;;
71896;SDS011;59767;51.344;12.362;2022-08-19T14:53:53;16.48;;;9.63;;
71896;SDS011;59767;51.344;12.362;2022-08-19T14:56:57;15.88;;;9.20;;
71896;SDS011;59767;51.344;12.362;2022-08-19T15:00:01;16.48;;;9.27;;
71896;SDS011;59767;51.344;12.362;2022-08-19T15:03:07;13.57;;;8.70;;
71896;SDS011;59767;51.344;12.362;2022-08-19T15:06:11;12.02;;;8.05;;
71896;SDS011;59767;51.344;12.362;2022-08-19T15:09:16;14.90;;;8.95;;
71896;SDS011;59767;51.344;12.362;2022-08-19T15:12:20;16.65;;;10.40;;
71896;SDS011;59767;51.344;12.362;2022-08-19T15:15:25;15.30;;;10.15;;
71896;SDS011;59767;51.344;12.362;2022-08-19T15:18:29;16.33;;;11.18;;
71896;SDS011;59767;51.344;12.362;2022-08-19T15:21:34;20.05;;;12.57;;
71896;SDS011;59767;51.344;12.362;2022-08-19T15:24:39;17.90;;;12.90;;
71896;SDS011;59767;51.344;12.362;2022-08-19T15:27:51;18.35;;;12.73;;
71896;SDS011;59767;51.344;12.362;2022-08-19T15:30:56;17.92;;;13.52;;
71896;SDS011;59767;51.344;12.362;2022-08-19T15:34:00;18.95;;;13.85;;
71896;SDS011;59767;51.344;12.362;2022-08-19T15:37:05;19.73;;;13.43;;
71896;SDS011;59767;51.344;12.362;2022-08-19T15:40:10;23.65;;;14.02;;
71896;SDS011;59767;51.344;12.362;2022-08-19T15:43:15;23.58;;;13.95;;
71896;SDS011;59767;51.344;12.362;2022-08-19T15:46:25;25.08;;;14.18;;
71896;SDS011;59767;51.344;12.362;2022-08-19T15:49:31;24.48;;;14.68;;
71896;SDS011;59767;51.344;12.362;2022-08-19T15:52:35;20.48;;;14.02;;
71896;SDS011;59767;51.344;12.362;2022-08-19T15:55:51;18.50;;;14.10;;
71896;SDS011;59767;51.344;12.362;2022-08-19T15:58:55;22.52;;;13.77;;
71896;SDS011;59767;51.344;12.362;2022-08-19T16:02:18;23.08;;;13.73;;
71896;SDS011;59767;51.344;12.362;2022-08-19T16:05:42;22.92;;;13.45;;
71896;SDS011;59767;51.344;12.362;2022-08-19T16:09:05;20.88;;;12.80;;
71896;SDS011;59767;51.344;12.362;2022-08-19T16:12:09;18.33;;;12.95;;
71896;SDS011;59767;51.344;12.362;2022-08-19T16:15:13;18.77;;;13.38;;
71896;SDS011;59767;51.344;12.362;2022-08-19T16:18:17;19.35;;;12.63;;
71896;SDS011;59767;51.344;12.362;2022-08-19T16:21:22;21.55;;;12.98;;
71896;SDS011;59767;51.344;12.362;2022-08-19T16:24:29;21.38;;;14.00;;
71896;SDS011;59767;51.344;12.362;2022-08-19T16:27:33;19.38;;;13.38;;
71896;SDS011;59767;51.344;12.362;2022-08-19T16:30:37;18.42;;;12.30;;
71896;SDS011;59767;51.344;12.362;2022-08-19T16:33:42;16.75;;;11.43;;
71896;SDS011;59767;51.344;12.362;2022-08-19T16:36:46;20.92;;;11.73;;
71896;SDS011;59767;51.344;12.362;2022-08-19T16:39:51;18.00;;;11.52;;
71896;SDS011;59767;51.344;12.362;2022-08-19T16:42:55;20.20;;;12.18;;
71896;SDS011;59767;51.344;12.362;2022-08-19T16:45:59;19.02;;;12.35;;
71896;SDS011;59767;51.344;12.362;2022-08-19T16:49:04;18.65;;;12.43;;
71896;SDS011;59767;51.344;12.362;2022-08-19T16:52:08;17.10;;;12.13;;
71896;SDS011;59767;51.344;12.362;2022-08-19T16:55:13;17.98;;;11.98;;
71896;SDS011;59767;51.344;12.362;2022-08-19T16:58:17;20.15;;;12.27;;
71896;SDS011;59767;51.344;12.362;2022-08-19T17:01:31;18.33;;;11.00;;
71896;SDS011;59767;51.344;12.362;2022-08-19T17:04:35;20.15;;;10.90;;
71896;SDS011;59767;51.344;12.362;2022-08-19T17:07:38;20.35;;;11.85;;
71896;SDS011;59767;51.344;12.362;2022-08-19T17:10:42;18.23;;;10.90;;
71896;SDS011;59767;51.344;12.362;2022-08-19T17:14:07;17.70;;;11.35;;
71896;SDS011;59767;51.344;12.362;2022-08-19T17:17:11;18.10;;;11.73;;
71896;SDS011;59767;51.344;12.362;2022-08-19T17:20:15;18.65;;;10.88;;
71896;SDS011;59767;51.344;12.362;2022-08-19T17:23:19;18.23;;;10.95;;
71896;SDS011;59767;51.344;12.362;2022-08-19T17:26:46;14.93;;;11.10;;
71896;SDS011;59767;51.344;12.362;2022-08-19T17:29:51;21.50;;;11.52;;
71896;SDS011;59767;51.344;12.362;2022-08-19T17:32:56;16.38;;;11.25;;
71896;SDS011;59767;51.344;12.362;2022-08-19T17:36:00;18.08;;;10.88;;
71896;SDS011;59767;51.344;12.362;2022-08-19T17:39:07;15.02;;;10.32;;
71896;SDS011;59767;51.344;12.362;2022-08-19T17:42:11;13.93;;;9.75;;
71896;SDS011;59767;51.344;12.362;2022-08-19T17:45:15;15.23;;;9.70;;
71896;SDS011;59767;51.344;12.362;2022-08-19T17:48:20;16.33;;;10.20;;
71896;SDS011;59767;51.344;12.362;2022-08-19T17:54:45;14.90;;;10.00;;
71896;SDS011;59767;51.344;12.362;2022-08-19T17:57:49;14.05;;;10.10;;
71896;SDS011;59767;51.344;12.362;2022-08-19T18:00:53;14.88;;;10.18;;
71896;SDS011;59767;51.344;12.362;2022-08-19T18:03:58;17.02;;;10.82;;
71896;SDS011;59767;51.344;12.362;2022-08-19T18:07:05;15.60;;;10.20;;
71896;SDS011;59767;51.344;12.362;2022-08-19T18:10:09;16.83;;;10.13;;
71896;SDS011;59767;51.344;12.362;2022-08-19T18:13:14;16.75;;;10.50;;
71896;SDS011;59767;51.344;12.362;2022-08-19T18:16:20;15.27;;;10.00;;
71896;SDS011;59767;51.344;12.362;2022-08-19T18:19:25;12.88;;;9.27;;
71896;SDS011;59767;51.344;12.362;2022-08-19T18:22:45;16.65;;;9.23;;
71896;SDS011;59767;51.344;12.362;2022-08-19T18:25:51;13.70;;;9.77;;
71896;SDS011;59767;51.344;12.362;2022-08-19T18:28:55;17.33;;;10.57;;
71896;SDS011;59767;51.344;12.362;2022-08-19T18:32:00;15.48;;;10.30;;
71896;SDS011;59767;51.344;12.362;2022-08-19T18:35:05;15.32;;;10.32;;
71896;SDS011;59767;51.344;12.362;2022-08-19T18:38:15;14.00;;;10.68;;
71896;SDS011;59767;51.344;12.362;2022-08-19T18:41:39;17.48;;;11.70;;
71896;SDS011;59767;51.344;12.362;2022-08-19T18:45:03;16.77;;;11.70;;
71896;SDS011;59767;51.344;12.362;2022-08-19T18:48:27;16.63;;;11.50;;
71896;SDS011;59767;51.344;12.362;2022-08-19T18:51:50;15.03;;;11.33;;
71896;SDS011;59767;51.344;12.362;2022-08-19T18:54:54;14.85;;;10.50;;
71896;SDS011;59767;51.344;12.362;2022-08-19T18:57:57;14.85;;;10.80;;
71896;SDS011;59767;51.344;12.362;2022-08-19T19:01:04;16.58;;;11.48;;
71896;SDS011;59767;51.344;12.362;2022-08-19T19:04:18;17.53;;;12.03;;
71896;SDS011;59767;51.344;12.362;2022-08-19T19:07:24;17.63;;;10.88;;
71896;SDS011;59767;51.344;12.362;2022-08-19T19:10:28;16.55;;;10.90;;
71896;SDS011;59767;51.344;12.362;2022-08-19T19:13:34;14.82;;;11.00;;
71896;SDS011;59767;51.344;12.362;2022-08-19T19:16:40;16.50;;;10.65;;
71896;SDS011;59767;51.344;12.362;2022-08-19T19:19:49;18.52;;;11.52;;
71896;SDS011;59767;51.344;12.362;2022-08-19T19:22:54;17.00;;;10.85;;
71896;SDS011;59767;51.344;12.362;2022-08-19T19:26:01;16.42;;;10.85;;
71896;SDS011;59767;51.344;12.362;2022-08-19T19:29:05;16.00;;;11.07;;
71896;SDS011;59767;51.344;12.362;2022-08-19T19:32:13;14.40;;;10.27;;
71896;SDS011;59767;51.344;12.362;2022-08-19T19:35:21;16.00;;;11.15;;
71896;SDS011;59767;51.344;12.362;2022-08-19T19:38:25;14.98;;;11.50;;
71896;SDS011;59767;51.344;12.362;2022-08-19T19:41:29;19.65;;;11.95;;
71896;SDS011;59767;51.344;12.362;2022-08-19T19:44:39;16.42;;;11.52;;
71896;SDS011;59767;51.344;12.362;2022-08-19T19:47:49;21.05;;;11.75;;
71896;SDS011;59767;51.344;12.362;2022-08-19T19:50:54;18.95;;;12.25;;
71896;SDS011;59767;51.344;12.362;2022-08-19T19:53:59;16.85;;;12.45;;
71896;SDS011;59767;51.344;12.362;2022-08-19T19:57:04;14.35;;;10.65;;
71896;SDS011;59767;51.344;12.362;2022-08-19T20:00:10;15.95;;;12.00;;
71896;SDS011;59767;51.344;12.362;2022-08-19T20:03:17;17.10;;;12.32;;
71896;SDS011;59767;51.344;12.362;2022-08-19T20:06:23;18.17;;;13.52;;
71896;SDS011;59767;51.344;12.362;2022-08-19T20:09:27;17.38;;;13.40;;
71896;SDS011;59767;51.344;12.362;2022-08-19T20:12:51;20.20;;;12.68;;
71896;SDS011;59767;51.344;12.362;2022-08-19T20:15:57;17.13;;;12.98;;
71896;SDS011;59767;51.344;12.362;2022-08-19T20:19:01;18.38;;;12.60;;
71896;SDS011;59767;51.344;12.362;2022-08-19T20:22:06;15.65;;;11.75;;
71896;SDS011;59767;51.344;12.362;2022-08-19T20:25:10;16.88;;;12.80;;
71896;SDS011;59767;51.344;12.362;2022-08-19T20:28:15;15.77;;;12.35;;
71896;SDS011;59767;51.344;12.362;2022-08-19T20:31:20;14.68;;;11.40;;
71896;SDS011;59767;51.344;12.362;2022-08-19T20:34:25;19.17;;;13.27;;
71896;SDS011;59767;51.344;12.362;2022-08-19T20:37:30;17.83;;;13.48;;
71896;SDS011;59767;51.344;12.362;2022-08-19T20:40:34;21.65;;;14.70;;
71896;SDS011;59767;51.344;12.362;2022-08-19T20:43:39;24.00;;;15.30;;
71896;SDS011;59767;51.344;12.362;2022-08-19T20:46:43;21.23;;;15.20;;
71896;SDS011;59767;51.344;12.362;2022-08-19T20:49:58;22.65;;;14.48;;
71896;SDS011;59767;51.344;12.362;2022-08-19T20:53:09;21.77;;;15.63;;
71896;SDS011;59767;51.344;12.362;2022-08-19T20:56:17;20.85;;;15.35;;
71896;SDS011;59767;51.344;12.362;2022-08-19T20:59:22;17.98;;;14.75;;
71896;SDS011;59767;51.344;12.362;2022-08-19T21:02:26;20.73;;;15.85;;
71896;SDS011;59767;51.344;12.362;2022-08-19T21:05:30;23.30;;;16.58;;
71896;SDS011;59767;51.344;12.362;2022-08-19T21:08:35;22.13;;;16.15;;
71896;SDS011;59767;51.344;12.362;2022-08-19T21:11:40;25.65;;;16.08;;
71896;SDS011;59767;51.344;12.362;2022-08-19T21:14:44;22.70;;;16.77;;
71896;SDS011;59767;51.344;12.362;2022-08-19T21:17:49;22.63;;;16.58;;
71896;SDS011;59767;51.344;12.362;2022-08-19T21:20:54;20.90;;;15.35;;
71896;SDS011;59767;51.344;12.362;2022-08-19T21:23:59;23.70;;;15.43;;
71896;SDS011;59767;51.344;12.362;2022-08-19T21:27:04;21.90;;;16.17;;
71896;SDS011;59767;51.344;12.362;2022-08-19T21:30:08;23.08;;;16.48;;
71896;SDS011;59767;51.344;12.362;2022-08-19T21:33:12;21.60;;;16.23;;
71896;SDS011;59767;51.344;12.362;2022-08-19T21:36:19;21.15;;;15.93;;
71896;SDS011;59767;51.344;12.362;2022-08-19T21:39:22;21.73;;;15.18;;
71896;SDS011;59767;51.344;12.362;2022-08-19T21:42:27;19.52;;;15.35;;
71896;SDS011;59767;51.344;12.362;2022-08-19T21:45:32;21.27;;;15.55;;
71896;SDS011;59767;51.344;12.362;2022-08-19T21:48:36;19.88;;;14.30;;
71896;SDS011;59767;51.344;12.362;2022-08-19T21:51:40;20.83;;;15.25;;
71896;SDS011;59767;51.344;12.362;2022-08-19T21:54:44;22.83;;;15.38;;
71896;SDS011;59767;51.344;12.362;2022-08-19T21:57:48;20.60;;;15.68;;
71896;SDS011;59767;51.344;12.362;2022-08-19T22:00:52;23.73;;;17.17;;
71896;SDS011;59767;51.344;12.362;2022-08-19T22:03:57;22.67;;;16.77;;
71896;SDS011;59767;51.344;12.362;2022-08-19T22:07:01;27.02;;;17.30;;
71896;SDS011;59767;51.344;12.362;2022-08-19T22:10:06;26.92;;;17.63;;
71896;SDS011;59767;51.344;12.362;2022-08-19T22:13:10;24.88;;;17.38;;
71896;SDS011;59767;51.344;12.362;2022-08-19T22:16:14;21.13;;;16.48;;
71896;SDS011;59767;51.344;12.362;2022-08-19T22:19:20;26.95;;;18.25;;
71896;SDS011;59767;51.344;12.362;2022-08-19T22:22:26;23.58;;;17.95;;
71896;SDS011;59767;51.344;12.362;2022-08-19T22:25:34;28.15;;;17.92;;
71896;SDS011;59767;51.344;12.362;2022-08-19T22:28:41;25.75;;;19.00;;
71896;SDS011;59767;51.344;12.362;2022-08-19T22:31:45;24.27;;;18.70;;
71896;SDS011;59767;51.344;12.362;2022-08-19T22:34:58;24.80;;;17.83;;
71896;SDS011;59767;51.344;12.362;2022-08-19T22:38:03;23.52;;;18.13;;
71896;SDS011;59767;51.344;12.362;2022-08-19T22:41:09;24.92;;;19.10;;
71896;SDS011;59767;51.344;12.362;2022-08-19T22:44:14;25.00;;;19.15;;
71896;SDS011;59767;51.344;12.362;2022-08-19T22:47:18;29.20;;;20.73;;
71896;SDS011;59767;51.344;12.362;2022-08-19T22:50:22;27.25;;;19.92;;
71896;SDS011;59767;51.344;12.362;2022-08-19T22:53:27;25.08;;;18.80;;
71896;SDS011;59767;51.344;12.362;2022-08-19T22:56:30;27.33;;;19.70;;
71896;SDS011;59767;51.344;12.362;2022-08-19T22:59:34;26.38;;;19.88;;
71896;SDS011;59767;51.344;12.362;2022-08-19T23:02:39;25.50;;;20.50;;
71896;SDS011;59767;51.344;12.362;2022-08-19T23:05:55;26.55;;;19.42;;
71896;SDS011;59767;51.344;12.362;2022-08-19T23:08:59;24.58;;;18.85;;
71896;SDS011;59767;51.344;12.362;2022-08-19T23:12:07;27.33;;;19.60;;
71896;SDS011;59767;51.344;12.362;2022-08-19T23:15:16;26.70;;;20.65;;
71896;SDS011;59767;51.344;12.362;2022-08-19T23:18:22;26.27;;;20.42;;
71896;SDS011;59767;51.344;12.362;2022-08-19T23:21:26;28.20;;;21.45;;
71896;SDS011;59767;51.344;12.362;2022-08-19T23:24:30;31.17;;;22.75;;
71896;SDS011;59767;51.344;12.362;2022-08-19T23:27:34;31.55;;;23.60;;
71896;SDS011;59767;51.344;12.362;2022-08-19T23:30:57;32.93;;;22.77;;
71896;SDS011;59767;51.344;12.362;2022-08-19T23:34:03;30.05;;;21.75;;
71896;SDS011;59767;51.344;12.362;2022-08-19T23:37:08;29.65;;;21.67;;
71896;SDS011;59767;51.344;12.362;2022-08-19T23:40:12;33.22;;;22.85;;
71896;SDS011;59767;51.344;12.362;2022-08-19T23:43:18;31.25;;;22.48;;
71896;SDS011;59767;51.344;12.362;2022-08-19T23:46:27;31.42;;;22.80;;
71896;SDS011;59767;51.344;12.362;2022-08-19T23:49:32;33.67;;;22.88;;
71896;SDS011;59767;51.344;12.362;2022-08-19T23:52:50;34.95;;;24.35;;
71896;SDS011;59767;51.344;12.362;2022-08-19T23:55:57;28.73;;;21.80;;
71896;SDS011;59767;51.344;12.362;2022-08-19T23:59:01;31.13;;;22.25;;
